Time;durP1;ratioP1;P1;durP2;ratioP2;P2;SDS_P1;SDS_P2;PMS_P1;PMS_P2;Temp;Humidity;BMP_temperature;BMP_pressure;BME280_temperature;BME280_humidity;BME280_pressure;Samples;Min_cycle;Max_cycle;Signal;HPM_P1;HPM_P2
2022/09/12 00:00:47;;;;;;;3.08;2.50;;;;;;;25.28;59.20;100739.06;5091964;28;20063;-82
2022/09/12 00:03:13;;;;;;;;;;;;;;;25.31;58.27;100747.94;5093877;28;20067;-83
2022/09/12 00:05:44;;;;;;;2.22;2.03;;;;;;;25.28;57.82;100744.41;5093511;28;20061;-81
2022/09/12 00:08:25;;;;;;;3.63;2.13;;;;;;;25.30;57.56;100753.31;5093473;28;20028;-82
2022/09/12 00:10:52;;;;;;;2.30;2.10;;;;;;;25.25;57.58;100741.75;5094684;28;20020;-81
2022/09/12 00:13:18;;;;;;;3.03;2.40;;;;;;;25.21;59.22;100748.91;5097810;28;20020;-81
2022/09/12 00:15:43;;;;;;;;;;;;;;;25.28;58.04;100755.09;5111586;28;20441;-80
2022/09/12 00:18:13;;;;;;;1.88;1.77;;;;;;;25.25;58.31;100756.00;5101975;28;20373;-83
2022/09/12 00:20:46;;;;;;;3.53;2.20;;;;;;;25.24;56.97;100767.59;5096840;28;20024;-80
2022/09/12 00:23:12;;;;;;;2.22;2.03;;;;;;;25.14;57.63;100765.81;5094919;28;20051;-82
2022/09/12 00:25:44;;;;;;;;;;;;;;;25.26;57.89;100780.94;5093436;28;20043;-82
2022/09/12 00:28:10;;;;;;;2.75;2.08;;;;;;;25.16;56.55;100756.03;5092684;28;19999;-82
2022/09/12 00:30:42;;;;;;;3.97;1.90;;;;;;;25.14;58.48;100768.50;5095090;28;20026;-81
2022/09/12 00:33:09;;;;;;;4.13;1.67;;;;;;;24.84;57.46;100727.72;5100596;28;21153;-81
2022/09/12 00:35:44;;;;;;;3.15;1.92;;;;;;;25.12;57.62;100776.53;5093383;28;20071;-81
2022/09/12 00:38:10;;;;;;;2.17;1.98;;;;;;;25.15;56.97;100772.97;5091439;28;20028;-82
2022/09/12 00:40:36;;;;;;;2.58;1.85;;;;;;;24.77;58.74;100736.66;5091808;28;20073;-81
2022/09/12 00:43:01;;;;;;;;;;;;;;;25.14;58.11;100777.41;5091380;28;20559;-81
2022/09/12 00:45:29;;;;;;;1.77;1.67;;;;;;;25.00;57.39;100749.91;5087155;28;19912;-81
2022/09/12 00:47:57;;;;;;;2.40;1.80;;;;;;;24.87;58.67;100726.78;5089858;28;20404;-80
2022/09/12 00:50:24;;;;;;;2.78;1.73;;;;;;;25.04;57.89;100754.34;5095632;28;20025;-81
2022/09/12 00:52:51;;;;;;;3.97;1.75;;;;;;;25.01;57.27;100753.44;5091248;28;20393;-81
2022/09/12 00:55:19;;;;;;;3.85;1.73;;;;;;;24.94;59.37;100776.66;5086527;28;20524;-82
2022/09/12 00:57:58;;;;;;;2.95;1.75;;;;;;;24.85;59.93;100756.22;5092286;28;20039;-83
2022/09/12 01:00:25;;;;;;;2.85;1.60;;;;;;;24.88;58.68;100749.97;5091751;28;20036;-82
2022/09/12 01:02:56;;;;;;;2.10;1.52;;;;;;;24.97;59.04;100766.81;5091989;28;20031;-81
2022/09/12 01:05:23;;;;;;;1.70;1.60;;;;;;;25.02;57.91;100763.22;5085931;28;20035;-82
2022/09/12 01:07:49;;;;;;;1.65;1.52;;;;;;;24.91;59.76;100776.63;5082895;28;20028;-82
2022/09/12 01:10:15;;;;;;;1.40;1.30;;;;;;;24.94;58.81;100782.00;5087897;28;20077;-82
2022/09/12 01:12:42;;;;;;;;;;;;;;;25.02;58.57;100774.81;5086145;28;20028;-81
2022/09/12 01:15:08;;;;;;;2.60;1.50;;;;;;;24.93;59.66;100754.41;5085363;28;19926;-82
2022/09/12 01:17:52;;;;;;;;;;;;;;;24.96;58.87;100765.03;5093481;28;20292;-83
2022/09/12 01:20:32;;;;;;;7.30;1.40;;;;;;;24.95;58.73;100770.38;5086571;28;19908;-82
2022/09/12 01:23:35;;;;;;;2.05;1.38;;;;;;;25.05;58.36;100769.44;5090858;28;20128;-82
2022/09/12 01:26:19;;;;;;;2.30;1.45;;;;;;;25.02;58.52;100766.81;5090561;28;20084;-82
2022/09/12 01:28:55;;;;;;;2.00;1.40;;;;;;;24.96;59.21;100756.16;5091296;28;20408;-82
2022/09/12 01:31:38;;;;;;;2.47;1.40;;;;;;;25.02;58.80;100766.81;5090769;28;20439;-82
2022/09/12 01:34:27;;;;;;;1.80;1.40;;;;;;;25.03;59.24;100775.69;5083256;28;20066;-82
2022/09/12 01:37:07;;;;;;;4.30;1.40;;;;;;;24.99;59.27;100766.81;5067913;28;20036;-82
2022/09/12 01:39:41;;;;;;;1.65;1.30;;;;;;;25.00;59.04;100763.25;5090221;28;20053;-82
2022/09/12 01:42:22;;;;;;;2.45;1.30;;;;;;;24.99;59.29;100767.69;5070295;28;20509;-82
2022/09/12 01:44:55;;;;;;;1.88;1.42;;;;;;;24.97;59.74;100760.59;5089306;28;20103;-82
2022/09/12 01:47:30;;;;;;;1.95;1.48;;;;;;;24.95;59.54;100775.72;5081949;28;20031;-82
2022/09/12 01:50:00;;;;;;;1.95;1.63;;;;;;;24.89;59.58;100762.41;5097031;28;20117;-82
2022/09/12 01:52:31;;;;;;;1.60;1.23;;;;;;;25.02;58.87;100761.47;5075947;28;20023;-82
2022/09/12 01:55:27;;;;;;;3.50;1.38;;;;;;;25.00;59.03;100765.94;5090176;28;20024;-82
2022/09/12 01:58:02;;;;;;;1.20;1.05;;;;;;;24.96;59.33;100764.16;5081649;28;20037;-82
2022/09/12 02:00:28;;;;;;;1.45;1.30;;;;;;;24.96;58.97;100749.03;5089631;28;20016;-82
2022/09/12 02:03:01;;;;;;;;;;;;;;;24.99;59.35;100757.00;5090296;28;20043;-83
2022/09/12 02:05:28;;;;;;;2.65;1.40;;;;;;;24.96;59.42;100751.69;5070171;28;19919;-82
2022/09/12 02:08:03;;;;;;;1.23;1.13;;;;;;;24.88;59.00;100739.28;5088665;28;20083;-83
2022/09/12 02:10:31;;;;;;;2.20;1.27;;;;;;;24.97;58.75;100772.16;5089751;28;20499;-82
2022/09/12 02:13:00;;;;;;;1.27;1.17;;;;;;;24.95;59.10;100759.69;5082622;28;20077;-81
2022/09/12 02:15:31;;;;;;;1.98;1.55;;;;;;;24.85;58.99;100739.28;5082003;28;20105;-83
2022/09/12 02:17:59;;;;;;;1.63;1.10;;;;;;;24.83;59.42;100752.66;5070929;28;20024;-82
2022/09/12 02:20:28;;;;;;;1.50;1.30;;;;;;;24.97;59.32;100766.81;5068794;28;20020;-82
2022/09/12 02:22:55;;;;;;;1.23;1.13;;;;;;;24.67;59.40;100705.56;5088763;28;20028;-83
2022/09/12 02:25:21;;;;;;;1.33;1.20;;;;;;;25.01;59.19;100765.00;5088084;28;20024;-81
2022/09/12 02:27:48;;;;;;;;;;;;;;;25.05;59.17;100764.09;5090645;28;20076;-82
2022/09/12 02:30:15;;;;;;;1.20;1.10;;;;;;;24.99;59.32;100764.13;5085053;28;19923;-82
2022/09/12 02:32:47;;;;;;;2.88;1.30;;;;;;;24.95;59.57;100759.69;5087688;28;20505;-82
2022/09/12 02:35:45;;;;;;;2.05;1.10;;;;;;;24.98;59.44;100765.03;5088644;28;20097;-81
2022/09/12 02:38:11;;;;;;;1.00;1.00;;;;;;;24.96;59.91;100764.16;5084396;28;20055;-82
2022/09/12 02:40:36;;;;;;;;;;;;;;;24.96;59.42;100765.03;5088779;28;20058;-81
2022/09/12 02:43:03;;;;;;;2.55;1.20;;;;;;;24.93;59.36;100765.06;5079963;28;19970;-82
2022/09/12 02:45:33;;;;;;;0.80;0.80;;;;;;;24.90;59.70;100746.38;5072059;28;20446;-82
2022/09/12 02:48:21;;;;;;;1.05;0.93;;;;;;;24.91;59.55;100736.56;5088627;28;20027;-82
2022/09/12 02:50:47;;;;;;;1.65;0.90;;;;;;;24.90;59.80;100753.50;5089685;28;20036;-82
2022/09/12 02:53:12;;;;;;;;;;;;;;;24.90;59.97;100753.50;5096016;28;20020;-82
2022/09/12 02:55:39;;;;;;;2.03;1.17;;;;;;;24.89;59.57;100757.97;5090133;28;20400;-82
2022/09/12 02:58:12;;;;;;;2.58;1.00;;;;;;;24.89;59.77;100770.41;5088509;28;20599;-81
2022/09/12 03:00:48;;;;;;;1.90;1.10;;;;;;;24.85;59.76;100766.91;5088704;28;20019;-81
2022/09/12 03:03:13;;;;;;;1.17;0.95;;;;;;;24.89;59.39;100762.41;5083458;28;20524;-81
2022/09/12 03:05:46;;;;;;;;;;;;;;;24.91;59.50;100758.84;5090562;28;20018;-81
2022/09/12 03:08:35;;;;;;;0.88;0.88;;;;;;;24.81;60.02;100750.88;5088581;28;19912;-81
2022/09/12 03:11:03;;;;;;;1.10;0.95;;;;;;;24.86;59.52;100755.31;5089218;28;20028;-81
2022/09/12 03:13:43;;;;;;;1.08;0.90;;;;;;;24.81;59.91;100757.13;5079753;28;20047;-82
2022/09/12 03:16:22;;;;;;;1.15;1.00;;;;;;;24.73;59.52;100738.44;5089385;28;20035;-81
2022/09/12 03:19:21;;;;;;;1.77;0.90;;;;;;;24.57;59.70;100702.03;5087193;28;20028;-81
2022/09/12 03:22:10;;;;;;;1.35;0.95;;;;;;;24.82;59.60;100753.53;5090158;28;20441;-81
2022/09/12 03:24:37;;;;;;;1.70;1.00;;;;;;;24.79;59.89;100754.44;5088883;28;20024;-81
2022/09/12 03:27:16;;;;;;;0.93;0.90;;;;;;;24.79;59.97;100764.25;5089239;28;20049;-81
2022/09/12 03:29:42;;;;;;;2.70;0.80;;;;;;;24.85;59.96;100772.25;5089133;28;20023;-82
2022/09/12 03:32:07;;;;;;;2.03;1.02;;;;;;;24.76;59.55;100781.19;5088554;28;20728;-82
2022/09/12 03:34:33;;;;;;;;;;;;;;;24.84;59.38;100788.25;5089160;28;20072;-82
2022/09/12 03:37:02;;;;;;;1.77;1.00;;;;;;;24.67;59.66;100764.28;5089575;28;20317;-81
2022/09/12 03:39:27;;;;;;;2.10;1.10;;;;;;;24.59;59.18;100750.97;5079940;28;20505;-82
2022/09/12 03:41:53;;;;;;;;;;;;;;;24.78;59.37;100765.13;5076183;28;20028;-80
2022/09/12 03:44:19;;;;;;;2.28;0.82;;;;;;;24.75;59.28;100765.16;5091913;28;19919;-80
2022/09/12 03:46:45;;;;;;;;;;;;;;;24.77;59.39;100764.25;5105413;28;20121;-82
2022/09/12 03:49:11;;;;;;;2.63;0.98;;;;;;;24.74;59.31;100758.94;5089717;28;19912;-82
2022/09/12 03:51:36;;;;;;;;;;;;;;;24.77;59.75;100755.34;5091966;28;20020;-82
2022/09/12 03:54:02;;;;;;;2.08;0.98;;;;;;;24.75;59.43;100770.50;5085823;28;20295;-82
2022/09/12 03:56:28;;;;;;;;;;;;;;;24.77;59.78;100761.56;5092223;28;20066;-85
2022/09/12 03:58:53;;;;;;;1.45;0.75;;;;;;;24.74;59.56;100776.72;5108335;28;19955;-81
2022/09/12 04:01:19;;;;;;;;;;;;;;;24.74;59.56;100776.72;5093301;28;20450;-81
2022/09/12 04:03:47;;;;;;;1.23;0.80;;;;;;;24.69;59.53;100783.88;5086311;28;19912;-81
2022/09/12 04:06:14;;;;;;;1.42;0.90;;;;;;;24.68;59.35;100780.31;5080282;28;20489;-81
2022/09/12 04:08:41;;;;;;;2.88;0.88;;;;;;;24.66;59.71;100787.44;5084849;28;20447;-82
2022/09/12 04:11:10;;;;;;;1.15;0.80;;;;;;;24.52;59.67;100766.13;5099121;28;20032;-82
2022/09/12 04:13:36;;;;;;;1.35;0.98;;;;;;;24.61;59.14;100772.31;5085715;28;20085;-81
2022/09/12 04:16:03;;;;;;;1.27;0.70;;;;;;;24.67;59.36;100788.34;5090618;28;20022;-81
2022/09/12 04:18:29;;;;;;;1.05;0.90;;;;;;;24.67;59.67;100791.88;5090611;28;20386;-81
2022/09/12 04:21:04;;;;;;;1.35;0.90;;;;;;;24.62;59.51;100771.41;5090658;28;20079;-81
2022/09/12 04:23:30;;;;;;;1.10;0.90;;;;;;;24.69;59.03;100790.09;5090835;28;20024;-81
2022/09/12 04:25:56;;;;;;;;;;;;;;;24.68;59.40;100796.34;5086851;28;20054;-81
2022/09/12 04:28:22;;;;;;;0.77;0.75;;;;;;;24.65;59.29;100796.34;5090920;28;19912;-81
2022/09/12 04:30:47;;;;;;;;;;;;;;;24.73;59.50;100797.19;5083345;28;20040;-81
2022/09/12 04:33:13;;;;;;;1.05;0.98;;;;;;;24.70;59.42;100794.56;5075786;28;19951;-81
2022/09/12 04:35:38;;;;;;;;;;;;;;;24.72;59.31;100800.78;5078382;28;20497;-81
2022/09/12 04:38:04;;;;;;;1.65;0.80;;;;;;;24.65;59.39;100790.13;5089513;28;20373;-81
2022/09/12 04:40:30;;;;;;;;;;;;;;;24.76;58.99;100797.22;5086320;28;20443;-81
2022/09/12 04:42:56;;;;;;;2.67;1.08;;;;;;;24.62;59.39;100771.41;5078555;28;19919;-81
2022/09/12 04:45:21;;;;;;;;;;;;;;;24.75;59.52;100794.53;5076306;28;20655;-80
2022/09/12 04:47:47;;;;;;;1.00;0.80;;;;;;;24.73;59.46;100793.66;5086299;28;19919;-80
2022/09/12 04:50:13;;;;;;;1.95;1.00;;;;;;;24.72;59.51;100787.44;5089741;28;20031;-82
2022/09/12 04:52:39;;;;;;;;;;;;;;;24.72;59.70;100802.53;5091937;28;20074;-81
2022/09/12 04:55:05;;;;;;;1.33;0.88;;;;;;;24.66;59.65;100802.56;5077065;28;20011;-79
2022/09/12 04:57:31;;;;;;;1.02;0.88;;;;;;;24.66;59.75;100800.81;5082055;28;20050;-82
2022/09/12 04:59:58;;;;;;;;;;;;;;;24.75;59.17;100806.09;5079010;28;20536;-81
2022/09/12 05:02:23;;;;;;;1.00;0.90;;;;;;;24.54;59.70;100777.69;5093762;28;19935;-82
2022/09/12 05:04:49;;;;;;;;;;;;;;;24.73;59.42;100807.88;5074335;28;20474;-82
2022/09/12 05:07:14;;;;;;;1.80;0.80;;;;;;;24.49;59.53;100794.59;5073245;28;20002;-81
2022/09/12 05:09:40;;;;;;;;;;;;;;;24.66;59.33;100802.56;5084787;28;20028;-81
2022/09/12 05:12:06;;;;;;;1.23;0.90;;;;;;;24.66;59.34;100810.56;5076475;28;20340;-81
2022/09/12 05:14:33;;;;;;;1.70;1.20;;;;;;;24.55;59.41;100797.25;5075766;28;20024;-81
2022/09/12 05:17:00;;;;;;;1.80;1.13;;;;;;;24.36;59.41;100762.59;5076343;28;20111;-81
2022/09/12 05:19:26;;;;;;;0.93;0.85;;;;;;;24.56;59.39;100802.59;5076586;28;20024;-82
2022/09/12 05:21:52;;;;;;;2.25;1.00;;;;;;;24.57;59.53;100809.72;5077578;28;20032;-81
2022/09/12 05:24:17;;;;;;;;;;;;;;;24.56;59.62;100799.94;5080038;28;20177;-81
2022/09/12 05:26:43;;;;;;;2.45;1.00;;;;;;;24.53;59.47;100793.69;5080867;28;19939;-82
2022/09/12 05:29:08;;;;;;;;;;;;;;;24.55;59.25;100795.50;5077766;28;20039;-82
2022/09/12 05:31:34;;;;;;;1.27;1.00;;;;;;;24.50;59.59;100789.28;5082074;28;20294;-82
2022/09/12 05:33:59;;;;;;;;;;;;;;;24.57;59.23;100796.38;5082495;28;20052;-81
2022/09/12 05:36:28;;;;;;;3.03;0.90;;;;;;;24.45;59.01;100780.38;5072916;28;19946;-82
2022/09/12 05:38:54;;;;;;;2.95;1.00;;;;;;;24.47;59.95;100793.69;5087356;28;20038;-81
2022/09/12 05:41:20;;;;;;;;;;;;;;;24.52;59.38;100792.81;5089135;28;20111;-81
2022/09/12 05:43:50;;;;;;;1.48;1.10;;;;;;;24.46;59.36;100778.56;5103071;28;19920;-81
2022/09/12 05:46:18;;;;;;;1.17;1.05;;;;;;;24.53;59.23;100783.94;5090765;28;20124;-80
2022/09/12 05:48:45;;;;;;;1.30;1.00;;;;;;;24.55;58.86;100779.47;5089413;28;20046;-80
2022/09/12 05:51:18;;;;;;;1.65;1.00;;;;;;;24.42;59.50;100768.78;5092343;28;20642;-80
2022/09/12 05:53:44;;;;;;;1.40;1.08;;;;;;;24.53;59.53;100783.03;5058924;28;20028;-80
2022/09/12 05:56:13;;;;;;;1.58;1.00;;;;;;;24.56;59.12;100783.91;5080816;28;20457;-80
2022/09/12 05:58:42;;;;;;;0.95;0.90;;;;;;;24.51;59.37;100785.72;5064204;28;20121;-80
2022/09/12 06:01:13;;;;;;;1.42;0.95;;;;;;;24.47;59.53;100778.59;5089409;28;20492;-80
2022/09/12 06:04:05;;;;;;;1.42;1.00;;;;;;;24.53;59.07;100786.59;5083196;28;20031;-79
2022/09/12 06:06:33;;;;;;;3.40;1.10;;;;;;;24.53;59.32;100785.69;5080126;28;20021;-79
2022/09/12 06:09:00;;;;;;;1.92;1.20;;;;;;;24.48;58.78;100766.13;5091100;28;20534;-80
2022/09/12 06:11:28;;;;;;;1.02;0.80;;;;;;;24.43;59.27;100770.59;5076803;28;20024;-80
2022/09/12 06:13:55;;;;;;;1.35;1.20;;;;;;;24.52;59.03;100789.28;5079493;28;20115;-80
2022/09/12 06:16:26;;;;;;;1.95;1.00;;;;;;;24.45;59.34;100772.34;5077102;28;20036;-80
2022/09/12 06:18:53;;;;;;;2.95;1.20;;;;;;;24.42;58.79;100784.81;5086593;28;20073;-80
2022/09/12 06:21:20;;;;;;;0.88;0.88;;;;;;;24.45;58.60;100783.03;5072077;28;20020;-80
2022/09/12 06:23:47;;;;;;;1.70;1.08;;;;;;;24.46;59.19;100783.91;5078407;28;20028;-80
2022/09/12 06:26:15;;;;;;;0.90;0.90;;;;;;;24.47;59.05;100783.00;5088444;28;20035;-79
2022/09/12 06:28:41;;;;;;;1.90;1.15;;;;;;;24.35;59.05;100789.28;5090257;28;20043;-80
2022/09/12 06:31:12;;;;;;;1.30;0.90;;;;;;;24.33;59.36;100780.38;5084510;28;20521;-80
2022/09/12 06:33:42;;;;;;;1.35;1.00;;;;;;;24.39;59.31;100780.38;5078738;28;20047;-79
2022/09/12 06:36:13;;;;;;;2.25;1.02;;;;;;;24.35;59.04;100771.47;5074658;28;20028;-80
2022/09/12 06:38:39;;;;;;;1.40;0.93;;;;;;;24.42;59.30;100784.81;5090218;28;20028;-78
2022/09/12 06:41:05;;;;;;;;;;;;;;;24.47;59.07;100783.91;5089156;28;20043;-79
2022/09/12 06:43:32;;;;;;;1.48;1.05;;;;;;;24.46;58.79;100782.13;5105885;28;20336;-78
2022/09/12 06:45:58;;;;;;;1.23;0.98;;;;;;;24.38;58.97;100784.84;5081375;28;20035;-79
2022/09/12 06:48:23;;;;;;;;;;;;;;;24.45;59.18;100788.38;5090172;28;20043;-79
2022/09/12 06:51:08;;;;;;;1.45;0.85;;;;;;;24.34;59.20;100774.16;5085585;28;19919;-78
2022/09/12 06:53:37;;;;;;;1.98;1.00;;;;;;;24.45;58.64;100796.38;5081360;28;20122;-78
2022/09/12 06:56:20;;;;;;;1.50;1.08;;;;;;;24.42;58.78;100796.38;5087623;28;20450;-79
2022/09/12 06:58:47;;;;;;;1.45;1.20;;;;;;;24.46;58.01;100808.81;5089779;28;20022;-79
2022/09/12 07:01:28;;;;;;;0.95;0.95;;;;;;;24.46;59.04;100813.28;5080794;28;20035;-79
2022/09/12 07:03:55;;;;;;;3.05;1.30;;;;;;;24.30;58.86;100799.06;5079288;28;20052;-79
2022/09/12 07:06:30;;;;;;;1.50;1.00;;;;;;;24.39;59.19;100807.06;5089823;28;20073;-78
2022/09/12 07:08:59;;;;;;;1.10;1.00;;;;;;;24.40;59.05;100816.84;5090285;28;20039;-79
2022/09/12 07:11:27;;;;;;;2.50;1.13;;;;;;;24.44;58.11;100823.06;5088939;28;20493;-78
2022/09/12 07:13:55;;;;;;;1.25;1.00;;;;;;;24.36;57.62;100796.38;5079416;28;20047;-78
2022/09/12 07:16:21;;;;;;;0.93;0.90;;;;;;;24.39;59.09;100807.06;5086572;28;20061;-79
2022/09/12 07:18:55;;;;;;;1.80;1.15;;;;;;;24.34;58.90;100798.16;5092630;28;20081;-79
2022/09/12 07:21:21;;;;;;;1.27;1.10;;;;;;;24.32;58.62;100789.28;5091150;28;20489;-78
2022/09/12 07:23:48;;;;;;;1.55;0.93;;;;;;;24.28;57.36;100785.75;5089216;28;20459;-78
2022/09/12 07:26:15;;;;;;;1.35;1.25;;;;;;;24.37;57.76;100796.38;5089426;28;20085;-78
2022/09/12 07:28:40;;;;;;;0.82;0.82;;;;;;;24.28;58.88;100801.75;5089812;28;20077;-78
2022/09/12 07:31:16;;;;;;;;;;;;;;;24.42;58.48;100803.50;5088422;28;20458;-79
2022/09/12 07:33:42;;;;;;;1.15;0.90;;;;;;;24.34;58.08;100796.41;5083910;28;19942;-79
2022/09/12 07:36:11;;;;;;;1.10;1.00;;;;;;;24.41;57.79;100799.94;5084795;28;22039;-78
2022/09/12 07:38:38;;;;;;;1.67;0.98;;;;;;;24.39;58.43;100807.94;5083496;28;20024;-78
2022/09/12 07:41:19;;;;;;;0.90;0.90;;;;;;;24.31;58.67;100819.53;5089698;28;20031;-78
2022/09/12 07:43:45;;;;;;;1.10;1.00;;;;;;;24.33;58.15;100799.94;5070758;28;20107;-78
2022/09/12 07:46:11;;;;;;;;;;;;;;;24.35;58.12;100799.97;5090935;28;20108;-77
2022/09/12 07:48:37;;;;;;;1.40;1.00;;;;;;;24.28;58.56;100791.09;5086477;28;19931;-78
2022/09/12 07:51:06;;;;;;;1.10;1.00;;;;;;;24.35;57.41;100791.94;5093224;28;20028;-79
2022/09/12 07:53:34;;;;;;;1.23;0.90;;;;;;;24.36;57.31;100797.28;5079173;28;20020;-78
2022/09/12 07:56:01;;;;;;;1.88;1.10;;;;;;;24.35;58.43;100799.97;5079876;28;20028;-79
2022/09/12 07:58:29;;;;;;;1.20;1.10;;;;;;;24.31;57.97;100784.84;5101189;28;20085;-78
2022/09/12 08:01:07;;;;;;;0.98;0.98;;;;;;;24.45;58.39;100792.78;5090364;28;20085;-79
2022/09/12 08:03:36;;;;;;;0.90;0.90;;;;;;;24.25;56.80;100759.03;5094598;28;20024;-78
2022/09/12 08:06:10;;;;;;;0.90;0.90;;;;;;;24.46;57.01;100784.78;5093510;28;20758;-79
2022/09/12 08:08:42;;;;;;;1.58;1.10;;;;;;;24.41;57.01;100781.25;5090028;28;20032;-80
2022/09/12 08:11:11;;;;;;;2.47;1.10;;;;;;;24.34;57.71;100764.38;5092410;28;20517;-78
2022/09/12 08:13:37;;;;;;;1.00;1.00;;;;;;;24.47;57.51;100783.91;5078148;28;20034;-77
2022/09/12 08:16:16;;;;;;;1.20;1.10;;;;;;;24.44;56.87;100777.69;5084087;28;20036;-78
2022/09/12 08:18:49;;;;;;;1.67;1.05;;;;;;;24.44;57.45;100781.25;5097160;28;20028;-78
2022/09/12 08:21:24;;;;;;;1.70;1.05;;;;;;;24.42;57.57;100771.47;5093498;28;20032;-77
2022/09/12 08:23:59;;;;;;;2.28;1.00;;;;;;;24.46;57.79;100773.22;5089300;28;20016;-77
2022/09/12 08:26:25;;;;;;;0.90;0.90;;;;;;;24.47;57.31;100767.91;5089212;28;20044;-79
2022/09/12 08:28:52;;;;;;;1.10;1.00;;;;;;;24.49;57.54;100766.16;5083029;28;20028;-79
2022/09/12 08:31:19;;;;;;;2.95;1.20;;;;;;;24.49;58.85;100760.81;5091239;28;20028;-79
2022/09/12 08:33:45;;;;;;;1.58;1.05;;;;;;;24.44;58.13;100751.00;5092305;28;20577;-78
2022/09/12 08:36:11;;;;;;;;;;;;;;;24.52;57.56;100758.13;5082007;28;20032;-79
2022/09/12 08:38:39;;;;;;;1.02;0.80;;;;;;;24.47;58.80;100761.66;5106830;28;20292;-76
2022/09/12 08:41:13;;;;;;;1.17;1.00;;;;;;;24.37;58.85;100753.69;5089804;28;20039;-79
2022/09/12 08:43:56;;;;;;;1.40;0.95;;;;;;;24.46;58.01;100746.53;5078503;28;20023;-78
2022/09/12 08:46:34;;;;;;;1.55;0.90;;;;;;;24.41;58.18;100749.22;5089220;28;20043;-78
2022/09/12 08:49:00;;;;;;;1.40;1.02;;;;;;;24.47;57.91;100748.31;5089965;28;20389;-78
2022/09/12 08:51:27;;;;;;;1.35;0.98;;;;;;;24.46;58.52;100752.75;5087359;28;20023;-78
2022/09/12 08:53:55;;;;;;;0.90;0.90;;;;;;;24.39;58.34;100735.88;5093997;28;20019;-78
2022/09/12 08:56:21;;;;;;;1.05;1.05;;;;;;;24.45;58.95;100736.75;5086435;28;20031;-78
2022/09/12 08:58:48;;;;;;;1.00;0.85;;;;;;;24.44;58.65;100740.31;5092132;28;20049;-78
2022/09/12 09:01:30;;;;;;;1.08;1.00;;;;;;;24.21;58.86;100693.22;5092899;28;20031;-79
2022/09/12 09:04:14;;;;;;;1.00;0.93;;;;;;;24.50;58.85;100741.22;5092480;28;20107;-78
2022/09/12 09:07:02;;;;;;;1.20;0.90;;;;;;;24.51;59.32;100742.09;5091543;28;20501;-78
2022/09/12 09:09:28;;;;;;;0.95;0.95;;;;;;;24.49;59.08;100739.44;5091377;28;20019;-78
2022/09/12 09:12:00;;;;;;;;;;;;;;;24.43;58.91;100743.91;5086826;28;20025;-78
2022/09/12 09:14:53;;;;;;;1.23;0.90;;;;;;;24.35;59.45;100750.13;5091367;28;20444;-78
2022/09/12 09:17:42;;;;;;;2.60;1.13;;;;;;;24.35;59.63;100736.78;5093045;28;20024;-79
2022/09/12 09:20:37;;;;;;;1.48;1.20;;;;;;;24.43;59.04;100743.91;5083871;28;20032;-77
2022/09/12 09:23:14;;;;;;;0.93;0.90;;;;;;;24.45;59.87;100745.66;5076609;28;20126;-78
2022/09/12 09:26:06;;;;;;;1.88;1.05;;;;;;;24.45;59.65;100737.66;5078295;28;20678;-77
2022/09/12 09:28:43;;;;;;;1.15;0.90;;;;;;;24.46;60.00;100738.53;5091836;28;20572;-77
2022/09/12 09:31:17;;;;;;;1.38;0.90;;;;;;;24.38;59.76;100727.88;5086036;28;20028;-78
2022/09/12 09:33:45;;;;;;;1.00;0.90;;;;;;;24.35;59.94;100722.56;5090261;28;20044;-76
2022/09/12 09:36:32;;;;;;;1.13;1.02;;;;;;;24.33;59.81;100735.03;5086499;28;20059;-78
2022/09/12 09:39:05;;;;;;;;;;;;;;;24.35;59.60;100743.91;5089338;28;20401;-78
2022/09/12 09:41:55;;;;;;;0.88;0.88;;;;;;;24.33;59.95;100732.34;5078417;28;19916;-79
2022/09/12 09:44:21;;;;;;;1.40;1.10;;;;;;;24.38;59.93;100733.22;5088615;28;20030;-79
2022/09/12 09:46:54;;;;;;;;;;;;;;;24.38;59.87;100735.88;5087620;28;20020;-78
2022/09/12 09:49:24;;;;;;;0.75;0.75;;;;;;;24.39;59.54;100732.34;5075942;28;19942;-79
2022/09/12 09:51:50;;;;;;;1.00;0.90;;;;;;;24.29;59.89;100718.13;5087800;28;20034;-79
2022/09/12 09:54:22;;;;;;;;;;;;;;;24.36;59.77;100727.00;5083201;28;20024;-78
2022/09/12 09:56:50;;;;;;;0.85;0.85;;;;;;;24.13;60.25;100695.03;5075141;28;19915;-79
2022/09/12 09:59:21;;;;;;;0.90;0.90;;;;;;;24.30;59.45;100730.59;5065420;28;20054;-80
2022/09/12 10:01:53;;;;;;;2.90;1.00;;;;;;;24.31;60.14;100726.13;5073702;28;20020;-79
2022/09/12 10:04:25;;;;;;;1.10;0.75;;;;;;;24.35;60.00;100720.78;5076720;28;20020;-80
2022/09/12 10:07:01;;;;;;;0.80;0.80;;;;;;;24.38;60.00;100728.78;5060182;28;20031;-80
2022/09/12 10:09:29;;;;;;;1.30;1.00;;;;;;;24.41;59.91;100727.88;5080758;28;20375;-80
2022/09/12 10:11:56;;;;;;;1.33;0.90;;;;;;;24.25;59.38;100704.78;5075672;28;20492;-78
2022/09/12 10:14:40;;;;;;;0.70;0.70;;;;;;;24.40;59.78;100734.09;5079582;28;20105;-80
2022/09/12 10:17:27;;;;;;;0.90;0.90;;;;;;;24.42;60.07;100728.75;5085122;28;20615;-78
2022/09/12 10:19:53;;;;;;;1.00;0.90;;;;;;;24.38;60.31;100718.09;5077765;28;20019;-80
2022/09/12 10:22:19;;;;;;;;;;;;;;;24.48;60.14;100723.41;5078925;28;20111;-80
2022/09/12 10:24:57;;;;;;;0.87;0.87;;;;;;;24.42;59.77;100728.75;5058856;28;19961;-80
2022/09/12 10:27:30;;;;;;;0.80;0.80;;;;;;;24.42;60.38;100720.75;5076864;28;20023;-80
2022/09/12 10:29:58;;;;;;;0.77;0.73;;;;;;;24.44;60.12;100722.50;5077493;28;20058;-80
2022/09/12 10:32:25;;;;;;;1.10;1.10;;;;;;;24.45;60.07;100720.72;5082410;28;20107;-81
2022/09/12 10:35:17;;;;;;;0.90;0.90;;;;;;;24.37;60.17;100727.00;5074716;28;20044;-80
2022/09/12 10:37:55;;;;;;;0.80;0.80;;;;;;;24.29;59.70;100714.56;5073667;28;20154;-80
2022/09/12 10:40:31;;;;;;;0.90;0.90;;;;;;;24.36;60.08;100732.31;5088746;28;20097;-80
2022/09/12 10:43:01;;;;;;;0.90;0.90;;;;;;;24.36;60.35;100721.66;5074731;28;20078;-80
2022/09/12 10:45:34;;;;;;;0.95;0.95;;;;;;;24.42;60.02;100731.44;5088564;28;20484;-80
2022/09/12 10:48:03;;;;;;;1.80;0.90;;;;;;;24.46;60.00;100722.50;5086799;28;20024;-80
2022/09/12 10:50:41;;;;;;;1.67;0.85;;;;;;;24.40;60.02;100712.75;5076383;28;20063;-80
2022/09/12 10:53:26;;;;;;;0.88;0.75;;;;;;;24.50;59.97;100727.00;5078264;28;20031;-80
2022/09/12 10:56:18;;;;;;;0.70;0.70;;;;;;;24.36;59.95;100714.56;5086552;28;20125;-80
2022/09/12 10:59:11;;;;;;;0.98;0.88;;;;;;;24.47;60.08;100729.63;5086041;28;20024;-79
2022/09/12 11:01:44;;;;;;;0.70;0.70;;;;;;;24.45;60.42;100726.97;5082406;28;20055;-80
2022/09/12 11:04:47;;;;;;;0.90;0.90;;;;;;;24.42;59.52;100728.75;5080672;28;20039;-80
2022/09/12 11:07:41;;;;;;;0.90;0.90;;;;;;;24.44;59.99;100724.31;5088716;28;20374;-79
2022/09/12 11:10:22;;;;;;;1.67;0.90;;;;;;;24.43;60.04;100722.53;5082543;28;20195;-79
2022/09/12 11:12:47;;;;;;;0.80;0.80;;;;;;;24.51;60.07;100742.09;5077117;28;20117;-80
2022/09/12 11:15:16;;;;;;;;;;;;;;;24.48;60.20;100732.28;5079056;28;20764;-80
2022/09/12 11:17:48;;;;;;;1.50;0.85;;;;;;;24.48;60.03;100734.06;5078399;28;20372;-79
2022/09/12 11:20:20;;;;;;;0.90;0.90;;;;;;;24.43;59.94;100723.41;5087101;28;20073;-80
2022/09/12 11:23:16;;;;;;;1.20;1.10;;;;;;;24.50;60.08;100729.66;5088739;28;20031;-80
2022/09/12 11:26:06;;;;;;;0.80;0.80;;;;;;;24.48;60.19;100718.94;5090183;28;20028;-80
2022/09/12 11:28:42;;;;;;;0.90;0.90;;;;;;;24.50;60.29;100714.53;5085019;28;20058;-80
2022/09/12 11:31:43;;;;;;;1.20;0.90;;;;;;;24.57;60.06;100720.72;5085431;28;20037;-81
2022/09/12 11:34:10;;;;;;;0.95;0.93;;;;;;;24.51;60.29;100702.03;5094321;28;20596;-81
2022/09/12 11:36:58;;;;;;;1.00;1.00;;;;;;;24.63;59.70;100709.13;5080899;28;20114;-81
2022/09/12 11:39:38;;;;;;;1.25;1.00;;;;;;;24.54;60.21;100704.72;5094678;28;20115;-81
2022/09/12 11:42:15;;;;;;;1.05;1.05;;;;;;;24.59;60.05;100713.59;5087037;28;20055;-79
2022/09/12 11:44:46;;;;;;;0.77;0.77;;;;;;;24.58;60.10;100699.34;5084142;28;20428;-80
2022/09/12 11:47:12;;;;;;;1.23;1.00;;;;;;;24.61;60.30;100706.44;5091668;28;20058;-80
2022/09/12 11:49:43;;;;;;;1.30;1.20;;;;;;;24.54;60.09;100686.91;5092645;28;20020;-81
2022/09/12 11:52:23;;;;;;;0.88;0.88;;;;;;;24.63;60.09;100701.13;5092748;28;20020;-80
2022/09/12 11:55:05;;;;;;;1.90;0.88;;;;;;;24.63;60.23;100704.66;5092731;28;20020;-81